Latest Weather Observations for Douglas River

IDD60801

Issued at 11:31 pm CST Thursday 28 July 2016 (issued every 30 minutes, with the page automatically refreshed every 10 minutes)

About weather observations | Map of weather stations | Latest weather observations for NT | Other Formats
Station Details ID: 014901 Name: DOUGLAS RIVER Lat: -13.83 Lon: 131.19 Height: 42.8 m
Data from the previous 72 hours. | See also: Recent months at Douglas River
Date/Time
CST
Temp
°C
App
Temp
°C
Dew
Point
°C
Rel
Hum
%
Delta-T
°C
Wind Press
QNH
hPa
Press
MSL
hPa
Rain since
9am
mm
Dir  Spd
km/h
Gust
km/h
Spd
kts
Gust
kts
28/11:30pm 17.5 17.4 9.3 58 4.3 CALM 0 7 0 4 1015.4 1015.2 0.0
28/11:00pm 18.3 17.9 8.4 52 5.1 CALM 0 0 0 0 1015.5 1015.3 0.0
28/10:30pm 18.5 18.4 9.4 55 4.8 CALM 0 0 0 0 1015.5 1015.3 0.0
28/10:00pm 18.5 18.6 10.3 59 4.4 CALM 0 6 0 3 1015.4 1015.2 0.0
28/09:30pm 19.2 18.6 10.5 57 4.7 ESE 4 7 2 4 1015.3 1015.1 0.0
28/09:00pm 21.2 20.2 12.3 57 5.0 SE 9 9 5 5 1015.0 1014.8 0.0
28/08:30pm 22.0 21.0 12.3 54 5.5 SE 9 9 5 5 1014.7 1014.5 0.0
28/08:00pm 22.8 20.3 6.4 34 8.4 SE 9 11 5 6 1014.5 1014.3 0.0
28/07:30pm 23.2 21.1 8.1 38 8.0 SSE 9 9 5 5 1014.1 1013.9 0.0
28/07:00pm 24.5 21.9 6.3 31 9.4 SE 9 11 5 6 1013.8 1013.6 0.0
28/06:30pm 25.4 22.0 6.0 28 10.0 SE 13 15 7 8 1013.4 1013.2 0.0
28/06:00pm 28.0 23.7 5.1 23 11.8 ESE 17 24 9 13 1013.0 1012.8 0.0
28/05:30pm 29.2 24.1 3.1 19 13.1 SE 19 28 10 15 1012.8 1012.6 0.0
28/05:00pm 30.0 24.4 1.5 16 14.0 ESE 20 30 11 16 1012.6 1012.4 0.0
28/04:30pm 30.3 24.8 1.8 16 14.1 SE 20 28 11 15 1012.5 1012.3 0.0
28/04:00pm 30.9 25.2 0.3 14 14.8 ESE 20 30 11 16 1012.5 1012.3 0.0
28/03:30pm 30.3 24.6 0.6 15 14.4 SE 20 30 11 16 1012.8 1012.6 0.0
28/03:00pm 30.5 24.8 0.6 14 14.5 ESE 20 30 11 16 1012.9 1012.7 0.0
28/02:30pm 30.1 23.7 -1.8 12 14.8 ESE 22 33 12 18 1013.4 1013.2 0.0
28/02:00pm 29.9 23.2 -1.4 13 14.6 SE 24 37 13 20 1013.9 1013.7 0.0
28/01:30pm 29.2 21.9 -2.9 12 14.5 ESE 26 35 14 19 1014.7 1014.5 0.0
28/01:00pm 29.0 21.6 -3.5 12 14.5 SE 26 35 14 19 1015.4 1015.2 0.0
28/12:30pm 28.3 21.0 -2.5 13 13.9 SE 26 35 14 19 1015.8 1015.6 0.0
28/12:00pm 27.5 20.4 -4.3 12 13.8 ESE 24 37 13 20 1016.4 1016.2 0.0
28/11:30am 26.5 18.6 -5.1 12 13.4 ESE 28 39 15 21 1017.0 1016.9 0.0
28/11:00am 25.5 17.3 -4.2 14 12.7 E 30 43 16 23 1017.1 1017.0 0.0
28/10:30am 24.9 16.7 -4.4 14 12.4 ESE 30 39 16 21 1017.7 1017.6 0.0
28/10:00am 23.5 15.5 -2.6 17 11.3 SE 30 41 16 22 1018.1 1018.0 0.0
28/09:30am 22.8 15.9 -2.5 18 10.9 SE 24 37 13 20 1018.3 1018.2 0.0
28/09:00am 20.9 15.2 0.8 26 9.1 SE 20 28 11 15 1018.2 1018.1 0.0
28/08:30am 18.2 14.2 2.8 35 7.1 SE 13 19 7 10 1018.1 1018.0 0.0
28/08:00am 15.4 12.6 5.3 51 4.8 SE 9 11 5 6 1017.8 1017.7 0.0
28/07:30am 14.8 11.4 4.2 49 4.9 SE 11 13 6 7 1017.4 1017.3 0.0
28/07:00am 14.8 11.4 4.2 49 4.9 SE 11 13 6 7 1017.1 1017.0 0.0
28/06:30am 17.1 13.4 2.3 37 6.7 ESE 11 13 6 7 1016.9 1016.8 0.0
28/06:00am 17.6 14.9 3.7 39 6.5 ESE 7 9 4 5 1016.6 1016.4 0.0
28/05:30am 16.5 13.2 4.4 44 5.7 SE 11 13 6 7 1016.3 1016.1 0.0
28/05:00am 16.7 13.0 4.7 45 5.7 SE 13 15 7 8 1016.1 1015.9 0.0
28/04:30am 17.4 14.3 5.4 45 5.8 SE 11 13 6 7 1015.9 1015.7 0.0
28/04:00am 17.8 15.6 6.2 46 5.7 SE 7 9 4 5 1015.8 1015.6 0.0
28/03:30am 18.3 16.1 6.1 44 6.0 SE 7 7 4 4 1015.9 1015.7 0.0
28/03:00am 18.4 16.3 6.5 45 5.9 SE 7 9 4 5 1015.8 1015.6 0.0
28/02:30am 18.3 15.8 6.7 46 5.8 SE 9 13 5 7 1015.9 1015.7 0.0
28/02:00am 18.9 16.0 6.5 44 6.2 SE 11 13 6 7 1015.8 1015.6 0.0
28/01:30am 18.8 15.9 6.6 45 6.1 SE 11 13 6 7 1015.8 1015.6 0.0
28/01:00am 19.2 15.9 6.6 44 6.3 SE 13 15 7 8 1015.8 1015.6 0.0
28/12:30am 19.0 15.5 7.4 47 5.9 SE 15 15 8 8 1015.7 1015.5 0.0
28/12:00am 19.2 16.1 7.4 46 6.0 SE 13 15 7 8 1015.8 1015.6 0.0
 
Date/Time
CST
Temp
°C
App
Temp
°C
Dew
Point
°C
Rel
Hum
%
Delta-T
°C
Wind Press
QNH
hPa
Press
MSL
hPa
Rain since
9am
mm
Dir  Spd
km/h
Gust
km/h
Spd
kts
Gust
kts
27/11:30pm 18.9 16.3 7.8 48 5.7 ESE 11 11 6 6 1015.5 1015.3 0.0
27/11:00pm 19.0 16.5 8.4 50 5.5 SE 11 11 6 6 1015.3 1015.1 0.0
27/10:30pm 19.4 17.2 7.9 47 5.9 SE 9 11 5 6 1015.2 1015.0 0.0
27/10:00pm 19.2 17.0 9.4 53 5.2 SE 11 11 6 6 1015.0 1014.8 0.0
27/09:30pm 21.3 18.6 7.3 40 7.2 SE 11 13 6 7 1014.9 1014.7 0.0
27/09:00pm 21.4 19.3 8.2 42 6.9 SE 9 9 5 5 1014.8 1014.6 0.0
27/08:30pm 23.2 20.3 6.4 33 8.6 SE 11 13 6 7 1014.3 1014.1 0.0
27/08:00pm 23.8 20.9 6.3 32 9.0 SE 11 13 6 7 1014.0 1013.8 0.0
27/07:30pm 24.7 21.2 5.4 29 9.8 SE 13 13 7 7 1013.7 1013.5 0.0
27/07:00pm 26.2 23.0 5.0 25 10.8 SE 11 13 6 7 1013.6 1013.4 0.0
27/06:30pm 26.9 23.2 4.7 24 11.3 ESE 13 15 7 8 1013.2 1013.0 0.0
27/06:00pm 29.9 24.2 2.8 17 13.6 ESE 22 30 12 16 1012.9 1012.7 0.0
27/05:30pm 30.9 24.4 2.4 16 14.3 E 26 37 14 20 1012.7 1012.5 0.0
27/05:00pm 31.4 24.1 2.4 16 14.6 ESE 30 41 16 22 1012.4 1012.2 0.0
27/04:30pm 31.8 25.0 3.3 16 14.6 E 28 43 15 23 1011.9 1011.7 0.0
27/04:00pm 32.2 24.9 2.3 15 15.1 ESE 30 44 16 24 1012.2 1012.0 0.0
27/03:30pm 31.6 25.6 3.6 17 14.4 ESE 24 35 13 19 1012.2 1012.0 0.0
27/03:00pm 31.8 26.1 5.1 18 14.1 SE 24 37 13 20 1012.5 1012.3 0.0
27/02:30pm 32.1 25.2 2.8 15 14.9 ESE 28 39 15 21 1012.8 1012.6 0.0
27/02:00pm 31.7 25.0 3.4 16 14.5 ESE 28 41 15 22 1013.3 1013.1 0.0
27/01:30pm 31.3 24.5 5.0 19 13.8 ESE 30 43 16 23 1013.8 1013.6 0.0
27/01:00pm 31.1 24.9 4.3 18 13.9 ESE 26 37 14 20 1014.3 1014.1 0.0
27/12:30pm 30.3 24.7 5.3 20 13.1 ESE 24 33 13 18 1015.0 1014.8 0.0
27/12:00pm 29.5 23.6 6.0 22 12.4 ESE 26 35 14 19 1015.6 1015.4 0.0
27/11:30am 28.4 23.1 6.8 25 11.5 ESE 24 33 13 18 1016.1 1015.9 0.0
27/11:00am 27.1 20.6 6.6 27 10.8 ESE 30 39 16 21 1016.6 1016.4 0.0
27/10:30am 25.8 19.1 5.8 27 10.3 E 30 39 16 21 1017.0 1016.9 0.0
27/10:00am 25.6 19.9 4.8 26 10.5 ESE 24 35 13 19 1017.0 1016.9 0.0
27/09:30am 23.9 19.5 6.7 33 8.9 SE 19 30 10 16 1017.1 1017.0 0.0
27/09:00am 21.9 18.6 7.9 40 7.3 SE 15 19 8 10 1017.0 1016.9 0.0
27/08:30am 19.3 16.4 8.3 49 5.7 SE 13 17 7 9 1016.7 1016.5 0.0
27/08:00am 17.1 15.7 9.0 59 4.2 SE 6 9 3 5 1016.4 1016.2 0.0
27/07:30am 15.6 14.7 9.2 65 3.3 ENE 4 9 2 5 1015.8 1015.6 0.0
27/07:00am 16.0 15.0 9.0 63 3.6 E 4 6 2 3 1015.3 1015.1 0.0
27/06:30am 16.5 15.1 9.4 63 3.7 SSE 7 9 4 5 1015.1 1014.9 0.0
27/06:00am 16.2 14.4 9.5 64 3.5 SE 9 11 5 6 1014.9 1014.7 0.0
27/05:30am 15.5 12.8 10.2 70 2.8 SE 15 17 8 9 1014.5 1014.3 0.0
27/05:00am 15.5 14.2 11.2 75 2.3 SSE 9 13 5 7 1014.3 1014.1 0.0
27/04:30am 16.3 15.7 11.7 74 2.5 SE 6 9 3 5 1013.9 1013.7 0.0
27/04:00am 16.5 15.6 12.5 77 2.2 SE 9 11 5 6 1013.7 1013.5 0.0
27/03:30am 16.7 16.1 12.3 75 2.4 ESE 7 11 4 6 1013.7 1013.5 0.0
27/03:00am 16.3 15.5 11.1 71 2.8 NE 6 17 3 9 1013.6 1013.4 0.0
27/02:30am 16.4 15.6 11.8 74 2.5 ENE 7 9 4 5 1013.5 1013.3 0.0
27/02:00am 17.2 16.7 11.9 71 2.9 ENE 6 9 3 5 1013.5 1013.3 0.0
27/01:30am 17.9 18.1 11.7 67 3.4 E 2 9 1 5 1013.7 1013.5 0.0
27/01:00am 18.1 17.6 12.1 68 3.3 E 6 9 3 5 1013.9 1013.7 0.0
27/12:30am 19.8 18.7 10.6 55 5.0 ESE 7 11 4 6 1014.0 1013.8 0.0
27/12:00am 19.0 19.5 11.5 61 4.1 CALM 0 0 0 0 1013.9 1013.7 0.0
 
Date/Time
CST
Temp
°C
App
Temp
°C
Dew
Point
°C
Rel
Hum
%
Delta-T
°C
Wind Press
QNH
hPa
Press
MSL
hPa
Rain since
9am
mm
Dir  Spd
km/h
Gust
km/h
Spd
kts
Gust
kts
26/11:30pm 21.1 21.0 10.7 51 5.7 ESE 2 6 1 3 1014.0 1013.8 0.0
26/11:00pm 20.6 19.9 11.4 55 5.1 SE 6 7 3 4 1014.0 1013.8 0.0
26/10:30pm 21.2 19.4 11.0 52 5.6 ESE 11 13 6 7 1014.0 1013.8 0.0
26/10:00pm 21.9 21.0 11.3 51 5.9 SE 7 9 4 5 1013.8 1013.6 0.0
26/09:30pm 21.5 20.0 11.9 54 5.4 SE 11 11 6 6 1013.7 1013.5 0.0
26/09:00pm 23.1 21.4 11.3 47 6.6 SE 11 13 6 7 1013.5 1013.3 0.0
26/08:30pm 23.2 21.5 11.2 46 6.7 SSE 11 13 6 7 1013.2 1013.0 0.0
26/08:00pm 24.4 23.2 11.7 45 7.2 SE 9 11 5 6 1012.9 1012.7 0.0
26/07:30pm 25.8 23.9 10.4 38 8.6 SE 11 13 6 7 1012.4 1012.2 0.0
26/07:00pm 26.0 24.2 10.7 38 8.6 SE 11 13 6 7 1012.0 1011.8 0.0
26/06:30pm 27.1 25.4 11.1 36 9.1 SE 11 13 6 7 1011.6 1011.4 0.0
26/06:00pm 29.4 26.7 10.4 30 10.8 SE 15 19 8 10 1011.2 1011.0 0.0
26/05:30pm 31.1 28.2 9.8 26 12.1 SE 15 22 8 12 1010.8 1010.6 0.0
26/05:00pm 32.3 29.0 9.4 24 13.0 ESE 17 26 9 14 1010.5 1010.3 0.0
26/04:30pm 32.2 29.2 10.6 26 12.5 ESE 17 26 9 14 1010.4 1010.2 0.0
26/04:00pm 32.7 29.5 11.1 26 12.6 ESE 19 35 10 19 1010.3 1010.1 0.0
26/03:30pm 32.5 29.4 11.6 28 12.3 SE 19 30 10 16 1010.6 1010.4 0.0
26/03:00pm 32.2 28.3 10.8 27 12.4 SE 22 32 12 17 1010.9 1010.7 0.0
26/02:30pm 31.9 27.1 9.0 24 12.9 ESE 24 37 13 20 1011.3 1011.1 0.0
26/02:00pm 33.0 29.1 8.6 22 13.7 ESE 19 39 10 21 1011.9 1011.7 0.0
26/01:30pm 32.7 27.9 8.9 23 13.4 SE 24 35 13 19 1012.4 1012.2 0.0
26/01:00pm 31.7 27.9 9.1 24 12.7 ESE 19 35 10 19 1012.8 1012.6 0.0
26/12:30pm 31.6 27.4 9.8 26 12.4 ESE 22 32 12 17 1013.6 1013.4 0.0
26/12:00pm 31.5 28.0 10.9 28 11.9 SE 20 28 11 15 1014.0 1013.8 0.0
26/11:30am 30.4 27.7 11.7 31 10.9 SE 17 26 9 14 1014.6 1014.4 0.0
26/11:00am 29.8 26.8 12.0 33 10.4 SE 19 26 10 14 1014.9 1014.7 0.0
26/10:30am 28.9 27.4 13.0 37 9.4 SSE 13 20 7 11 1015.3 1015.1 0.0
26/10:00am 27.4 26.0 13.3 41 8.3 SE 13 22 7 12 1015.4 1015.2 0.0
26/09:30am 26.5 25.2 13.6 45 7.6 SE 13 20 7 11 1015.5 1015.3 0.0
26/09:00am 23.2 22.8 14.2 57 5.3 ESE 9 11 5 6 1015.4 1015.2 0.0
26/08:30am 20.7 20.0 14.4 67 3.7 SE 11 15 6 8 1015.3 1015.1 0.0
26/08:00am 18.5 18.5 14.2 76 2.5 ESE 7 9 4 5 1015.2 1015.0 0.0
26/07:30am 17.8 18.1 13.4 75 2.5 ESE 4 7 2 4 1014.7 1014.5 0.0
26/07:00am 17.6 17.4 13.5 77 2.3 SSE 7 11 4 6 1014.3 1014.1 0.0
26/06:30am 17.5 17.3 13.6 78 2.2 SE 7 9 4 5 1014.1 1013.9 0.0
26/06:00am 17.7 18.0 13.5 76 2.4 SE 4 7 2 4 1013.9 1013.7 0.0
26/05:30am 17.7 17.5 13.7 77 2.3 SSE 7 9 4 5 1013.5 1013.3 0.0
26/05:00am 16.8 18.1 14.2 85 1.5 CALM 0 0 0 0 1013.2 1013.0 0.0
26/04:30am 16.2 17.2 13.3 83 1.6 CALM 0 6 0 3 1012.8 1012.6 0.0
26/04:00am 17.0 18.1 13.6 80 1.9 CALM 0 0 0 0 1012.5 1012.3 0.0
26/03:30am 17.7 19.0 14.0 79 2.1 CALM 0 0 0 0 1012.6 1012.4 0.0
26/03:00am 18.1 19.0 13.9 76 2.4 NNW 2 6 1 3 1012.6 1012.4 0.0
26/02:30am 17.5 18.8 14.0 80 2.0 CALM 0 0 0 0 1012.6 1012.4 0.0
26/02:00am 20.0 20.0 13.5 66 3.7 NNE 6 9 3 5 1012.7 1012.5 0.0
26/01:30am 18.3 19.7 14.3 77 2.3 CALM 0 0 0 0 1013.0 1012.8 0.0
26/01:00am 18.8 20.0 15.0 78 2.2 NNE 2 9 1 5 1013.1 1012.9 0.0
26/12:30am 18.8 19.9 14.7 77 2.4 NNE 2 9 1 5 1013.0 1012.8 0.0
26/12:00am 19.2 20.7 14.6 74 2.7 CALM 0 0 0 0 1012.9 1012.7 0.0

Other Formats:

Comma delimited format used in spreadsheet applications
http://www.bom.gov.au/fwo/IDD60801/IDD60801.94128.axf

JavaScript Object Notation format (JSON) in row-major order
http://www.bom.gov.au/fwo/IDD60801/IDD60801.94128.json